22:31
Airports
History
Links
Donate
Help keep this website running!
PayPal
Bitcoin
This page is community maintained. The information is intended for PC simulator navigation or reference.
Always use approved charts for navigation.
EGGP
Liverpool
Liverpool (EGGP)
Speke, England, United Kingdom
(C)
Lat/Lng:53° 20' 1.08" N / 2° 50' 59.17" W
53.333632 / -2.849769
Elevation:80'ft / 24mMSL
ID / ICAO:EGGP
Runways:1
Longest:09-27
Asphalt 2,269m / 7,445ft
Controlled:Yes
METAR22:20 GMT 2017-09-19
Altimeter: 30.09
Visibility: 6.2 statute miles
Wind: 9 knots (from 200°)
Temp: 13°c / 55°f
Humidity: 87.6%

METAR: EGGP 192220Z 20009KT CAVOK 13/11 Q1019

(Powered by phpweather)
Airport Radio Frequencies
ATIS: 124.32
Ground: 121.95
Tower: 126.35
Approach: 119.85
Nearby VORs <50NM
Nearby NDBs
Runway 09 / 27
Dimensions:2269.2 x 46m 7445' x 151'ft
Surface:Asphalt
Edge Lights:High intensity
Runway 09 [A]Runway 27 [B]
Heading:085°TH 265°TH
Lat:
Lng:
53° 19' 58.25"N
2° 52' 0.66"W
53° 20' 3.9"N
2° 49' 57.68"W
ALS:CalvertCalvert
User Notes and Comments
53° 20' 1.08" N / 2° 50' 59.17" W
Distance To
Airport ID:
Nearby Airports
(C) Hawarden 12.0 NM
EGNR ( WX ) SSW 206°
4 Haydock Park 13.6 NM
EG49 NE 43°
4 Ince Blundell 15.8 NM
X4IN NNW 331°
4 Ashcroft 16.4 NM
EGCR SE 135°
(C) RAF Woodvale 19.2 NM
EGOW NNW 333°
4 Manchester Barton 21.2 NM
EGCB ENE 63°
(C) Southport Birkdale Sands 22.7 NM
EGCO NNW 341°
VFR Chart
Flight Planning at SkyVector.com